AGJ920 WITT-WIMM
Flight info
| Callsign | AGJ920 |
|---|---|
| Flight time | 1h 22m |
| Altitude | 140 |
| Route | LAWAH DUAMO KABUP TESAV MDN BONAR |
| Aircraft | SH36/M-SDE3FG/L |
Departure
| Time | 2026-04-26 18:47 |
|---|---|
| Airport | Sultan Iskandar Muda International Airport (WITT) |
Arrival
| Time | 2026-04-26 20:09 |
|---|---|
| Airport | Kualanamu International Airport (WIMM) |
| Time | Latitude | Longitude | Altitude | Speed | Heading |
|---|---|---|---|---|---|
| 2026-04-26 18:19 | 5.51909 | 95.41853 | 72 ft | 0 kts | 340° |
| 2026-04-26 18:37 | 5.51913 | 95.41853 | 72 ft | 1 kts | 15° |
| 2026-04-26 18:37 | 5.51929 | 95.41866 | 70 ft | 6 kts | 45° |
| 2026-04-26 18:38 | 5.51960 | 95.41913 | 69 ft | 10 kts | 64° |
| 2026-04-26 18:38 | 5.51966 | 95.41924 | 70 ft | 0 kts | 64° |
| 2026-04-26 18:40 | 5.51968 | 95.41929 | 70 ft | 3 kts | 64° |
| 2026-04-26 18:40 | 5.51986 | 95.41982 | 72 ft | 9 kts | 79° |
| 2026-04-26 18:40 | 5.51996 | 95.42025 | 70 ft | 0 kts | 76° |
| 2026-04-26 18:41 | 5.51998 | 95.42034 | 84 ft | 7 kts | 76° |
| 2026-04-26 18:41 | 5.52065 | 95.42081 | 73 ft | 19 kts | 354° |
| 2026-04-26 18:41 | 5.52227 | 95.42054 | 70 ft | 21 kts | 351° |
| 2026-04-26 18:41 | 5.52355 | 95.42028 | 71 ft | 21 kts | 347° |
| 2026-04-26 18:42 | 5.52493 | 95.41999 | 71 ft | 21 kts | 349° |
| 2026-04-26 18:42 | 5.52642 | 95.41968 | 67 ft | 22 kts | 348° |
| 2026-04-26 18:42 | 5.52757 | 95.41944 | 66 ft | 15 kts | 349° |
| 2026-04-26 18:42 | 5.52869 | 95.41921 | 70 ft | 18 kts | 348° |
| 2026-04-26 18:43 | 5.53002 | 95.41895 | 65 ft | 21 kts | 349° |
| 2026-04-26 18:43 | 5.53146 | 95.41866 | 66 ft | 19 kts | 348° |
| 2026-04-26 18:43 | 5.53279 | 95.41840 | 64 ft | 21 kts | 349° |
| 2026-04-26 18:43 | 5.53419 | 95.41812 | 70 ft | 20 kts | 349° |
| 2026-04-26 18:44 | 5.53564 | 95.41784 | 65 ft | 22 kts | 347° |
| 2026-04-26 18:44 | 5.53702 | 95.41752 | 65 ft | 20 kts | 347° |
| 2026-04-26 18:44 | 5.53822 | 95.41703 | 64 ft | 12 kts | 325° |
| 2026-04-26 18:44 | 5.53835 | 95.41694 | 65 ft | 5 kts | 325° |
| 2026-04-26 18:45 | 5.53880 | 95.41662 | 68 ft | 11 kts | 324° |
| 2026-04-26 18:45 | 5.53921 | 95.41645 | 66 ft | 3 kts | 43° |
| 2026-04-26 18:45 | 5.53932 | 95.41663 | 65 ft | 4 kts | 58° |
| 2026-04-26 18:45 | 5.53917 | 95.41706 | 66 ft | 13 kts | 155° |
| 2026-04-26 18:46 | 5.53770 | 95.41737 | 69 ft | 38 kts | 169° |
| 2026-04-26 18:46 | 5.53324 | 95.41828 | 67 ft | 90 kts | 167° |
| 2026-04-26 18:46 | 5.52592 | 95.41978 | 158 ft | 117 kts | 167° |
| 2026-04-26 18:46 | 5.51782 | 95.42149 | 444 ft | 116 kts | 166° |
| 2026-04-26 18:47 | 5.50993 | 95.42326 | 680 ft | 123 kts | 166° |
| 2026-04-26 18:47 | 5.50308 | 95.42857 | 762 ft | 134 kts | 111° |
| 2026-04-26 18:47 | 5.50528 | 95.43719 | 962 ft | 139 kts | 41° |
| 2026-04-26 18:47 | 5.51510 | 95.43919 | 1136 ft | 151 kts | 357° |
| 2026-04-26 18:48 | 5.52560 | 95.43854 | 1448 ft | 151 kts | 358° |
| 2026-04-26 18:48 | 5.53610 | 95.43819 | 1738 ft | 152 kts | 360° |
| 2026-04-26 18:48 | 5.54669 | 95.43776 | 2073 ft | 152 kts | 359° |
| 2026-04-26 18:48 | 5.55722 | 95.43719 | 2374 ft | 152 kts | 360° |
| 2026-04-26 18:49 | 5.56733 | 95.43859 | 2628 ft | 150 kts | 37° |
| 2026-04-26 18:49 | 5.57138 | 95.44742 | 2924 ft | 146 kts | 100° |
| 2026-04-26 18:49 | 5.56464 | 95.45452 | 3222 ft | 154 kts | 163° |
| 2026-04-26 18:49 | 5.55397 | 95.45337 | 3557 ft | 153 kts | 180° |
| 2026-04-26 18:50 | 5.54337 | 95.45333 | 3835 ft | 152 kts | 173° |
| 2026-04-26 18:50 | 5.53277 | 95.45368 | 4174 ft | 152 kts | 174° |
| 2026-04-26 18:50 | 5.52215 | 95.45395 | 4505 ft | 153 kts | 174° |
| 2026-04-26 18:50 | 5.51146 | 95.45416 | 4819 ft | 154 kts | 174° |
| 2026-04-26 18:51 | 5.50071 | 95.45433 | 5108 ft | 155 kts | 174° |
| 2026-04-26 18:51 | 5.48999 | 95.45499 | 5395 ft | 153 kts | 158° |
| 2026-04-26 18:51 | 5.48295 | 95.46212 | 5622 ft | 148 kts | 101° |
| 2026-04-26 18:51 | 5.48438 | 95.47213 | 5964 ft | 144 kts | 74° |
| 2026-04-26 18:52 | 5.48920 | 95.48091 | 6254 ft | 145 kts | 53° |
| 2026-04-26 18:52 | 5.49556 | 95.48887 | 6530 ft | 146 kts | 54° |
| 2026-04-26 18:52 | 5.50124 | 95.49730 | 6807 ft | 146 kts | 64° |
| 2026-04-26 18:52 | 5.50478 | 95.50672 | 7087 ft | 146 kts | 77° |
| 2026-04-26 18:53 | 5.50535 | 95.51692 | 7364 ft | 147 kts | 95° |
| 2026-04-26 18:53 | 5.50434 | 95.52717 | 7663 ft | 148 kts | 96° |
| 2026-04-26 18:53 | 5.50326 | 95.53747 | 7961 ft | 149 kts | 96° |
| 2026-04-26 18:53 | 5.50207 | 95.54786 | 8268 ft | 150 kts | 97° |
| 2026-04-26 18:54 | 5.50084 | 95.55831 | 8578 ft | 151 kts | 97° |
| 2026-04-26 18:54 | 5.49961 | 95.56888 | 8887 ft | 152 kts | 97° |
| 2026-04-26 18:54 | 5.49836 | 95.57948 | 9185 ft | 153 kts | 97° |
| 2026-04-26 18:54 | 5.49711 | 95.59015 | 9490 ft | 154 kts | 97° |
| 2026-04-26 18:55 | 5.49586 | 95.60087 | 9794 ft | 155 kts | 97° |
| 2026-04-26 18:55 | 5.49460 | 95.61165 | 10069 ft | 155 kts | 97° |
| 2026-04-26 18:55 | 5.49336 | 95.62228 | 10343 ft | 156 kts | 97° |
| 2026-04-26 18:55 | 5.49209 | 95.63324 | 10626 ft | 156 kts | 97° |
| 2026-04-26 18:56 | 5.49082 | 95.64410 | 10894 ft | 157 kts | 97° |
| 2026-04-26 18:56 | 5.48956 | 95.65489 | 11157 ft | 158 kts | 97° |
| 2026-04-26 18:56 | 5.48827 | 95.66584 | 11439 ft | 158 kts | 97° |
| 2026-04-26 18:56 | 5.48697 | 95.67686 | 11720 ft | 159 kts | 97° |
| 2026-04-26 18:57 | 5.48569 | 95.68789 | 12014 ft | 159 kts | 97° |
| 2026-04-26 18:57 | 5.48526 | 95.69162 | 12109 ft | 160 kts | 97° |
| 2026-04-26 18:57 | 5.48310 | 95.71013 | 12533 ft | 166 kts | 97° |
| 2026-04-26 18:57 | 5.48165 | 95.72237 | 12456 ft | 186 kts | 97° |
| 2026-04-26 18:58 | 5.48007 | 95.73574 | 12433 ft | 198 kts | 97° |
| 2026-04-26 18:58 | 5.47844 | 95.74977 | 12430 ft | 205 kts | 97° |
| 2026-04-26 18:58 | 5.47677 | 95.76415 | 12429 ft | 209 kts | 97° |
| 2026-04-26 18:58 | 5.47564 | 95.77379 | 12429 ft | 211 kts | 97° |
| 2026-04-26 18:59 | 5.47391 | 95.78856 | 12429 ft | 214 kts | 97° |
| 2026-04-26 18:59 | 5.47217 | 95.80336 | 12493 ft | 213 kts | 97° |
| 2026-04-26 18:59 | 5.47043 | 95.81822 | 12491 ft | 215 kts | 97° |
| 2026-04-26 18:59 | 5.46868 | 95.83316 | 12497 ft | 217 kts | 97° |
| 2026-04-26 19:00 | 5.46634 | 95.85312 | 12501 ft | 218 kts | 97° |
| 2026-04-26 19:00 | 5.46514 | 95.86334 | 12500 ft | 218 kts | 97° |
| 2026-04-26 19:00 | 5.46337 | 95.87845 | 12499 ft | 219 kts | 97° |
| 2026-04-26 19:00 | 5.46162 | 95.89346 | 12500 ft | 219 kts | 97° |
| 2026-04-26 19:01 | 5.45983 | 95.90864 | 12501 ft | 219 kts | 97° |
| 2026-04-26 19:01 | 5.45804 | 95.92390 | 12501 ft | 219 kts | 97° |
| 2026-04-26 19:01 | 5.45626 | 95.93909 | 12499 ft | 219 kts | 97° |
| 2026-04-26 19:01 | 5.45448 | 95.95429 | 12499 ft | 219 kts | 97° |
| 2026-04-26 19:02 | 5.45269 | 95.96949 | 12499 ft | 219 kts | 97° |
| 2026-04-26 19:02 | 5.45091 | 95.98471 | 12500 ft | 219 kts | 97° |
| 2026-04-26 19:02 | 5.44912 | 95.99991 | 12500 ft | 220 kts | 97° |
| 2026-04-26 19:02 | 5.44791 | 96.01022 | 12499 ft | 219 kts | 97° |
| 2026-04-26 19:03 | 5.44555 | 96.03035 | 12497 ft | 219 kts | 97° |
| 2026-04-26 19:03 | 5.44376 | 96.04557 | 12494 ft | 219 kts | 97° |
| 2026-04-26 19:03 | 5.44197 | 96.06080 | 12495 ft | 220 kts | 97° |
| 2026-04-26 19:03 | 5.44018 | 96.07603 | 12494 ft | 220 kts | 97° |
| 2026-04-26 19:04 | 5.43838 | 96.09126 | 12496 ft | 220 kts | 97° |
| 2026-04-26 19:04 | 5.43659 | 96.10649 | 12498 ft | 220 kts | 97° |
| 2026-04-26 19:04 | 5.43480 | 96.12175 | 12497 ft | 220 kts | 97° |
| 2026-04-26 19:04 | 5.43301 | 96.13699 | 12497 ft | 220 kts | 97° |
| 2026-04-26 19:05 | 5.42944 | 96.16729 | 12499 ft | 220 kts | 97° |
| 2026-04-26 19:05 | 5.42764 | 96.18255 | 12497 ft | 220 kts | 97° |
| 2026-04-26 19:05 | 5.42584 | 96.19780 | 12497 ft | 220 kts | 97° |
| 2026-04-26 19:06 | 5.42405 | 96.21304 | 12497 ft | 220 kts | 97° |
| 2026-04-26 19:06 | 5.42226 | 96.22827 | 12491 ft | 220 kts | 97° |
| 2026-04-26 19:06 | 5.42046 | 96.24355 | 12491 ft | 220 kts | 97° |
| 2026-04-26 19:06 | 5.41865 | 96.25879 | 12493 ft | 220 kts | 97° |
| 2026-04-26 19:07 | 5.41681 | 96.27400 | 12493 ft | 220 kts | 97° |
| 2026-04-26 19:07 | 5.41499 | 96.28903 | 12494 ft | 220 kts | 97° |
| 2026-04-26 19:07 | 5.41315 | 96.30427 | 12492 ft | 220 kts | 97° |
| 2026-04-26 19:07 | 5.41131 | 96.31949 | 12494 ft | 220 kts | 97° |
| 2026-04-26 19:08 | 5.40947 | 96.33472 | 12492 ft | 220 kts | 97° |
| 2026-04-26 19:08 | 5.40762 | 96.34998 | 12494 ft | 220 kts | 97° |
| 2026-04-26 19:08 | 5.40578 | 96.36523 | 12492 ft | 220 kts | 97° |
| 2026-04-26 19:08 | 5.40394 | 96.38045 | 12495 ft | 220 kts | 97° |
| 2026-04-26 19:09 | 5.40209 | 96.39569 | 12494 ft | 220 kts | 97° |
| 2026-04-26 19:09 | 5.40025 | 96.41093 | 12490 ft | 220 kts | 97° |
| 2026-04-26 19:09 | 5.39841 | 96.42616 | 12490 ft | 220 kts | 97° |
| 2026-04-26 19:09 | 5.39656 | 96.44140 | 12492 ft | 220 kts | 97° |
| 2026-04-26 19:10 | 5.39472 | 96.45663 | 12492 ft | 220 kts | 97° |
| 2026-04-26 19:10 | 5.39288 | 96.47187 | 12493 ft | 220 kts | 97° |
| 2026-04-26 19:10 | 5.39106 | 96.48688 | 12489 ft | 220 kts | 97° |
| 2026-04-26 19:10 | 5.38919 | 96.50234 | 12490 ft | 220 kts | 97° |
| 2026-04-26 19:11 | 5.38737 | 96.51738 | 12490 ft | 220 kts | 97° |
| 2026-04-26 19:11 | 5.38552 | 96.53262 | 12489 ft | 220 kts | 97° |
| 2026-04-26 19:11 | 5.38366 | 96.54788 | 12488 ft | 220 kts | 97° |
| 2026-04-26 19:11 | 5.38182 | 96.56312 | 12492 ft | 220 kts | 97° |
| 2026-04-26 19:12 | 5.37997 | 96.57837 | 12489 ft | 220 kts | 97° |
| 2026-04-26 19:12 | 5.37812 | 96.59360 | 12489 ft | 220 kts | 97° |
| 2026-04-26 19:12 | 5.37627 | 96.60882 | 12489 ft | 220 kts | 97° |
| 2026-04-26 19:12 | 5.37443 | 96.62401 | 12490 ft | 220 kts | 97° |
| 2026-04-26 19:13 | 5.37259 | 96.63922 | 12491 ft | 219 kts | 97° |
| 2026-04-26 19:13 | 5.37075 | 96.65443 | 12493 ft | 219 kts | 97° |
| 2026-04-26 19:13 | 5.36890 | 96.66967 | 12490 ft | 220 kts | 97° |
| 2026-04-26 19:13 | 5.36704 | 96.68487 | 12491 ft | 219 kts | 97° |
| 2026-04-26 19:14 | 5.36522 | 96.69987 | 12491 ft | 219 kts | 97° |
| 2026-04-26 19:14 | 5.36338 | 96.71507 | 12493 ft | 219 kts | 97° |
| 2026-04-26 19:14 | 5.36153 | 96.73026 | 12491 ft | 219 kts | 97° |
| 2026-04-26 19:14 | 5.36028 | 96.74053 | 12493 ft | 219 kts | 97° |
| 2026-04-26 19:15 | 5.35783 | 96.76069 | 12492 ft | 219 kts | 97° |
| 2026-04-26 19:15 | 5.35598 | 96.77590 | 12489 ft | 219 kts | 97° |
| 2026-04-26 19:15 | 5.35413 | 96.79113 | 12488 ft | 220 kts | 97° |
| 2026-04-26 19:15 | 5.35228 | 96.80634 | 12489 ft | 220 kts | 97° |
| 2026-04-26 19:16 | 5.35043 | 96.82155 | 12487 ft | 220 kts | 97° |
| 2026-04-26 19:16 | 5.34860 | 96.83661 | 12489 ft | 220 kts | 97° |
| 2026-04-26 19:16 | 5.34675 | 96.85180 | 12483 ft | 220 kts | 97° |
| 2026-04-26 19:16 | 5.34489 | 96.86703 | 12479 ft | 220 kts | 97° |
| 2026-04-26 19:17 | 5.34304 | 96.88226 | 12481 ft | 220 kts | 97° |
| 2026-04-26 19:17 | 5.34119 | 96.89747 | 12481 ft | 219 kts | 97° |
| 2026-04-26 19:17 | 5.33934 | 96.91266 | 12480 ft | 219 kts | 97° |
| 2026-04-26 19:17 | 5.33749 | 96.92784 | 12472 ft | 219 kts | 97° |
| 2026-04-26 19:18 | 5.33564 | 96.94303 | 12481 ft | 219 kts | 97° |
| 2026-04-26 19:18 | 5.33378 | 96.95825 | 12472 ft | 219 kts | 97° |
| 2026-04-26 19:18 | 5.33193 | 96.97342 | 12481 ft | 219 kts | 97° |
| 2026-04-26 19:18 | 5.33010 | 96.98842 | 12481 ft | 219 kts | 97° |
| 2026-04-26 19:19 | 5.32825 | 97.00360 | 12478 ft | 219 kts | 97° |
| 2026-04-26 19:19 | 5.32639 | 97.01884 | 12481 ft | 219 kts | 97° |
| 2026-04-26 19:19 | 5.32454 | 97.03402 | 12481 ft | 220 kts | 97° |
| 2026-04-26 19:19 | 5.32268 | 97.04924 | 12480 ft | 220 kts | 97° |
| 2026-04-26 19:20 | 5.32083 | 97.06447 | 12482 ft | 220 kts | 97° |
| 2026-04-26 19:20 | 5.31959 | 97.07457 | 12477 ft | 220 kts | 97° |
| 2026-04-26 19:20 | 5.31710 | 97.09492 | 12479 ft | 220 kts | 97° |
| 2026-04-26 19:20 | 5.31524 | 97.11015 | 12479 ft | 220 kts | 97° |
| 2026-04-26 19:21 | 5.31339 | 97.12534 | 12480 ft | 220 kts | 97° |
| 2026-04-26 19:21 | 5.31153 | 97.14056 | 12479 ft | 220 kts | 97° |
| 2026-04-26 19:21 | 5.30967 | 97.15578 | 12480 ft | 220 kts | 97° |
| 2026-04-26 19:21 | 5.30781 | 97.17099 | 12480 ft | 220 kts | 97° |
| 2026-04-26 19:22 | 5.30595 | 97.18621 | 12482 ft | 220 kts | 97° |
| 2026-04-26 19:22 | 5.30409 | 97.20141 | 12482 ft | 220 kts | 97° |
| 2026-04-26 19:22 | 5.30223 | 97.21661 | 12482 ft | 220 kts | 97° |
| 2026-04-26 19:22 | 5.30037 | 97.23182 | 12479 ft | 220 kts | 97° |
| 2026-04-26 19:23 | 5.29850 | 97.24707 | 12481 ft | 220 kts | 97° |
| 2026-04-26 19:23 | 5.29664 | 97.26229 | 12479 ft | 220 kts | 97° |
| 2026-04-26 19:23 | 5.29478 | 97.27753 | 12477 ft | 220 kts | 97° |
| 2026-04-26 19:23 | 5.29294 | 97.29256 | 12478 ft | 220 kts | 97° |
| 2026-04-26 19:24 | 5.29108 | 97.30776 | 12476 ft | 220 kts | 97° |
| 2026-04-26 19:24 | 5.28921 | 97.32296 | 12478 ft | 220 kts | 97° |
| 2026-04-26 19:24 | 5.28548 | 97.35339 | 12479 ft | 220 kts | 97° |
| 2026-04-26 19:25 | 5.28362 | 97.36861 | 12477 ft | 220 kts | 97° |
| 2026-04-26 19:25 | 5.28236 | 97.37890 | 12482 ft | 220 kts | 97° |
| 2026-04-26 19:25 | 5.27989 | 97.39903 | 12481 ft | 220 kts | 97° |
| 2026-04-26 19:25 | 5.27801 | 97.41432 | 12482 ft | 220 kts | 97° |
| 2026-04-26 19:26 | 5.27615 | 97.42952 | 12483 ft | 220 kts | 97° |
| 2026-04-26 19:26 | 5.27428 | 97.44475 | 12481 ft | 220 kts | 97° |
| 2026-04-26 19:26 | 5.27241 | 97.45999 | 12480 ft | 220 kts | 97° |
| 2026-04-26 19:26 | 5.27054 | 97.47523 | 12481 ft | 220 kts | 97° |
| 2026-04-26 19:27 | 5.26867 | 97.49046 | 12481 ft | 220 kts | 97° |
| 2026-04-26 19:27 | 5.26618 | 97.50160 | 12453 ft | 220 kts | 112° |
| 2026-04-26 19:27 | 5.25808 | 97.51446 | 12464 ft | 220 kts | 131° |
| 2026-04-26 19:27 | 5.24611 | 97.52393 | 12497 ft | 220 kts | 150° |
| 2026-04-26 19:28 | 5.23294 | 97.53154 | 12598 ft | 215 kts | 146° |
| 2026-04-26 19:28 | 5.22069 | 97.53961 | 12803 ft | 208 kts | 146° |
| 2026-04-26 19:28 | 5.20860 | 97.54736 | 12968 ft | 205 kts | 147° |
| 2026-04-26 19:28 | 5.19640 | 97.55492 | 12993 ft | 210 kts | 147° |
| 2026-04-26 19:29 | 5.18388 | 97.56267 | 13016 ft | 213 kts | 147° |
| 2026-04-26 19:29 | 5.17121 | 97.57059 | 13013 ft | 216 kts | 147° |
| 2026-04-26 19:29 | 5.15836 | 97.57863 | 13010 ft | 218 kts | 147° |
| 2026-04-26 19:29 | 5.14543 | 97.58669 | 13004 ft | 220 kts | 147° |
| 2026-04-26 19:30 | 5.13239 | 97.59483 | 13000 ft | 221 kts | 147° |
| 2026-04-26 19:30 | 5.11929 | 97.60300 | 13013 ft | 222 kts | 147° |
| 2026-04-26 19:30 | 5.10618 | 97.61119 | 13007 ft | 222 kts | 147° |
| 2026-04-26 19:30 | 5.09746 | 97.61663 | 13009 ft | 223 kts | 147° |
| 2026-04-26 19:31 | 5.07984 | 97.62762 | 13006 ft | 223 kts | 147° |
| 2026-04-26 19:31 | 5.06662 | 97.63587 | 13001 ft | 224 kts | 147° |
| 2026-04-26 19:31 | 5.05341 | 97.64408 | 13005 ft | 224 kts | 147° |
| 2026-04-26 19:31 | 5.04017 | 97.65235 | 13008 ft | 223 kts | 147° |
| 2026-04-26 19:32 | 5.02700 | 97.66060 | 13015 ft | 224 kts | 147° |
| 2026-04-26 19:32 | 5.01378 | 97.66883 | 13011 ft | 224 kts | 147° |
| 2026-04-26 19:32 | 5.00054 | 97.67706 | 13013 ft | 224 kts | 147° |
| 2026-04-26 19:32 | 4.98751 | 97.68520 | 13013 ft | 224 kts | 147° |
| 2026-04-26 19:33 | 4.97428 | 97.69347 | 13008 ft | 224 kts | 147° |
| 2026-04-26 19:33 | 4.96105 | 97.70171 | 13003 ft | 224 kts | 147° |
| 2026-04-26 19:33 | 4.94784 | 97.70993 | 13003 ft | 223 kts | 147° |
| 2026-04-26 19:33 | 4.93467 | 97.71815 | 13015 ft | 223 kts | 147° |
| 2026-04-26 19:34 | 4.92148 | 97.72639 | 13009 ft | 223 kts | 147° |
| 2026-04-26 19:34 | 4.90827 | 97.73463 | 13009 ft | 224 kts | 147° |
| 2026-04-26 19:34 | 4.89504 | 97.74286 | 13015 ft | 224 kts | 147° |
| 2026-04-26 19:34 | 4.88183 | 97.75109 | 13017 ft | 224 kts | 147° |
| 2026-04-26 19:35 | 4.86863 | 97.75931 | 13010 ft | 224 kts | 147° |
| 2026-04-26 19:35 | 4.85545 | 97.76755 | 13017 ft | 224 kts | 147° |
| 2026-04-26 19:35 | 4.84222 | 97.77580 | 13010 ft | 223 kts | 147° |
| 2026-04-26 19:35 | 4.82902 | 97.78402 | 13005 ft | 223 kts | 147° |
| 2026-04-26 19:36 | 4.81585 | 97.79223 | 13004 ft | 223 kts | 147° |
| 2026-04-26 19:36 | 4.80712 | 97.79767 | 13011 ft | 223 kts | 147° |
| 2026-04-26 19:36 | 4.78947 | 97.80867 | 13014 ft | 223 kts | 147° |
| 2026-04-26 19:36 | 4.77627 | 97.81690 | 13004 ft | 223 kts | 147° |
| 2026-04-26 19:37 | 4.76308 | 97.82511 | 13008 ft | 223 kts | 147° |
| 2026-04-26 19:37 | 4.74985 | 97.83336 | 13006 ft | 223 kts | 147° |
| 2026-04-26 19:37 | 4.73668 | 97.84156 | 13003 ft | 223 kts | 147° |
| 2026-04-26 19:37 | 4.72368 | 97.84966 | 13004 ft | 223 kts | 147° |
| 2026-04-26 19:38 | 4.71050 | 97.85788 | 13006 ft | 223 kts | 147° |
| 2026-04-26 19:38 | 4.69733 | 97.86609 | 13004 ft | 223 kts | 147° |
| 2026-04-26 19:38 | 4.68419 | 97.87427 | 13007 ft | 223 kts | 147° |
| 2026-04-26 19:38 | 4.67100 | 97.88249 | 13004 ft | 223 kts | 146° |
| 2026-04-26 19:39 | 4.65784 | 97.89068 | 13004 ft | 223 kts | 147° |
| 2026-04-26 19:39 | 4.64467 | 97.89888 | 13001 ft | 223 kts | 146° |
| 2026-04-26 19:39 | 4.63151 | 97.90708 | 13003 ft | 222 kts | 147° |
| 2026-04-26 19:39 | 4.61838 | 97.91526 | 13000 ft | 222 kts | 146° |
| 2026-04-26 19:40 | 4.60523 | 97.92345 | 13003 ft | 222 kts | 146° |
| 2026-04-26 19:40 | 4.59210 | 97.93163 | 13008 ft | 222 kts | 146° |
| 2026-04-26 19:40 | 4.57916 | 97.93969 | 13008 ft | 222 kts | 146° |
| 2026-04-26 19:40 | 4.56604 | 97.94786 | 13004 ft | 222 kts | 146° |
| 2026-04-26 19:41 | 4.55286 | 97.95607 | 13005 ft | 222 kts | 146° |
| 2026-04-26 19:41 | 4.53973 | 97.96424 | 13006 ft | 222 kts | 146° |
| 2026-04-26 19:41 | 4.52659 | 97.97242 | 13008 ft | 222 kts | 146° |
| 2026-04-26 19:41 | 4.52217 | 97.97518 | 13010 ft | 222 kts | 146° |
| 2026-04-26 19:42 | 4.50033 | 97.98877 | 13007 ft | 222 kts | 146° |
| 2026-04-26 19:42 | 4.48718 | 97.99697 | 13008 ft | 222 kts | 146° |
| 2026-04-26 19:42 | 4.47406 | 98.00513 | 13008 ft | 222 kts | 146° |
| 2026-04-26 19:42 | 4.46094 | 98.01329 | 13010 ft | 222 kts | 146° |
| 2026-04-26 19:43 | 4.44783 | 98.02146 | 13014 ft | 222 kts | 146° |
| 2026-04-26 19:43 | 4.43471 | 98.02962 | 13013 ft | 222 kts | 146° |
| 2026-04-26 19:43 | 4.42159 | 98.03779 | 13011 ft | 222 kts | 146° |
| 2026-04-26 19:43 | 4.40848 | 98.04595 | 13013 ft | 222 kts | 146° |
| 2026-04-26 19:44 | 4.39552 | 98.05402 | 13015 ft | 222 kts | 146° |
| 2026-04-26 19:44 | 4.38240 | 98.06219 | 13013 ft | 222 kts | 146° |
| 2026-04-26 19:44 | 4.36925 | 98.07036 | 13013 ft | 222 kts | 146° |
| 2026-04-26 19:44 | 4.35611 | 98.07855 | 13013 ft | 222 kts | 146° |
| 2026-04-26 19:45 | 4.34299 | 98.08671 | 13011 ft | 222 kts | 146° |
| 2026-04-26 19:45 | 4.32985 | 98.09489 | 13010 ft | 222 kts | 146° |
| 2026-04-26 19:45 | 4.31674 | 98.10304 | 13017 ft | 222 kts | 146° |
| 2026-04-26 19:45 | 4.30361 | 98.11122 | 13016 ft | 222 kts | 146° |
| 2026-04-26 19:46 | 4.29049 | 98.11938 | 13023 ft | 222 kts | 146° |
| 2026-04-26 19:46 | 4.27754 | 98.12744 | 13011 ft | 222 kts | 146° |
| 2026-04-26 19:46 | 4.26439 | 98.13562 | 13014 ft | 222 kts | 146° |
| 2026-04-26 19:46 | 4.25123 | 98.14380 | 13009 ft | 222 kts | 146° |
| 2026-04-26 19:47 | 4.23808 | 98.15198 | 13013 ft | 222 kts | 146° |
| 2026-04-26 19:47 | 4.23365 | 98.15473 | 13009 ft | 222 kts | 146° |
| 2026-04-26 19:47 | 4.21184 | 98.16831 | 13013 ft | 222 kts | 146° |
| 2026-04-26 19:47 | 4.19884 | 98.17660 | 13002 ft | 221 kts | 141° |
| 2026-04-26 19:48 | 4.18787 | 98.18717 | 13008 ft | 219 kts | 135° |
| 2026-04-26 19:48 | 4.17630 | 98.19715 | 13017 ft | 220 kts | 139° |
| 2026-04-26 19:48 | 4.16448 | 98.20703 | 13002 ft | 221 kts | 138° |
| 2026-04-26 19:48 | 4.15292 | 98.21713 | 13003 ft | 221 kts | 137° |
| 2026-04-26 19:49 | 4.14155 | 98.22719 | 13002 ft | 221 kts | 137° |
| 2026-04-26 19:49 | 4.13001 | 98.23733 | 13003 ft | 221 kts | 137° |
| 2026-04-26 19:49 | 4.11846 | 98.24744 | 13004 ft | 221 kts | 137° |
| 2026-04-26 19:49 | 4.10687 | 98.25759 | 13005 ft | 221 kts | 137° |
| 2026-04-26 19:50 | 4.09531 | 98.26773 | 13010 ft | 221 kts | 137° |
| 2026-04-26 19:50 | 4.08370 | 98.27791 | 13011 ft | 222 kts | 137° |
| 2026-04-26 19:50 | 4.07207 | 98.28810 | 13009 ft | 222 kts | 137° |
| 2026-04-26 19:50 | 4.06043 | 98.29829 | 13006 ft | 222 kts | 137° |
| 2026-04-26 19:51 | 4.04879 | 98.30850 | 13005 ft | 222 kts | 137° |
| 2026-04-26 19:51 | 4.03720 | 98.31866 | 13003 ft | 221 kts | 137° |
| 2026-04-26 19:51 | 4.02562 | 98.32880 | 13002 ft | 221 kts | 137° |
| 2026-04-26 19:51 | 4.01401 | 98.33898 | 13003 ft | 222 kts | 137° |
| 2026-04-26 19:52 | 4.00242 | 98.34914 | 13004 ft | 222 kts | 137° |
| 2026-04-26 19:52 | 3.99470 | 98.35589 | 13007 ft | 222 kts | 137° |
| 2026-04-26 19:52 | 3.98311 | 98.36606 | 13005 ft | 221 kts | 137° |
| 2026-04-26 19:52 | 3.97152 | 98.37621 | 13009 ft | 221 kts | 137° |
| 2026-04-26 19:53 | 3.95994 | 98.38635 | 13004 ft | 221 kts | 137° |
| 2026-04-26 19:53 | 3.94836 | 98.39650 | 13003 ft | 221 kts | 137° |
| 2026-04-26 19:53 | 3.93681 | 98.40662 | 13003 ft | 221 kts | 137° |
| 2026-04-26 19:53 | 3.92527 | 98.41674 | 13004 ft | 220 kts | 137° |
| 2026-04-26 19:54 | 3.91372 | 98.42683 | 12997 ft | 220 kts | 137° |
| 2026-04-26 19:54 | 3.90220 | 98.43693 | 13004 ft | 220 kts | 137° |
| 2026-04-26 19:54 | 3.89358 | 98.44451 | 13002 ft | 220 kts | 137° |
| 2026-04-26 19:54 | 3.88203 | 98.45460 | 12999 ft | 220 kts | 137° |
| 2026-04-26 19:55 | 3.87049 | 98.46470 | 13001 ft | 220 kts | 137° |
| 2026-04-26 19:55 | 3.85897 | 98.47479 | 13002 ft | 220 kts | 137° |
| 2026-04-26 19:55 | 3.84758 | 98.48478 | 12999 ft | 220 kts | 137° |
| 2026-04-26 19:55 | 3.83605 | 98.49487 | 12999 ft | 220 kts | 137° |
| 2026-04-26 19:56 | 3.82454 | 98.50495 | 13002 ft | 220 kts | 137° |
| 2026-04-26 19:56 | 3.81149 | 98.51286 | 12998 ft | 222 kts | 158° |
| 2026-04-26 19:56 | 3.79624 | 98.51562 | 13001 ft | 224 kts | 174° |
| 2026-04-26 19:56 | 3.78075 | 98.51713 | 13002 ft | 223 kts | 169° |
| 2026-04-26 19:57 | 3.76536 | 98.51950 | 13009 ft | 224 kts | 169° |
| 2026-04-26 19:57 | 3.74991 | 98.52160 | 13002 ft | 225 kts | 170° |
| 2026-04-26 19:57 | 3.73427 | 98.52348 | 12934 ft | 227 kts | 171° |
| 2026-04-26 19:57 | 3.71823 | 98.52545 | 12508 ft | 239 kts | 170° |
| 2026-04-26 19:58 | 3.70168 | 98.52754 | 12033 ft | 240 kts | 171° |
| 2026-04-26 19:58 | 3.68531 | 98.52959 | 11506 ft | 234 kts | 171° |
| 2026-04-26 19:58 | 3.66950 | 98.53157 | 11005 ft | 230 kts | 171° |
| 2026-04-26 19:58 | 3.65376 | 98.53355 | 10497 ft | 227 kts | 171° |
| 2026-04-26 19:59 | 3.63821 | 98.53550 | 10005 ft | 224 kts | 171° |
| 2026-04-26 19:59 | 3.62284 | 98.53742 | 9500 ft | 221 kts | 171° |
| 2026-04-26 19:59 | 3.60763 | 98.53933 | 8984 ft | 219 kts | 171° |
| 2026-04-26 19:59 | 3.59256 | 98.54122 | 8467 ft | 217 kts | 171° |
| 2026-04-26 20:00 | 3.57796 | 98.54416 | 7940 ft | 213 kts | 155° |
| 2026-04-26 20:00 | 3.56562 | 98.55206 | 7437 ft | 209 kts | 136° |
| 2026-04-26 20:00 | 3.55686 | 98.56346 | 6939 ft | 206 kts | 116° |
| 2026-04-26 20:00 | 3.55185 | 98.57427 | 6554 ft | 204 kts | 114° |
| 2026-04-26 20:01 | 3.54576 | 98.58699 | 6087 ft | 202 kts | 115° |
| 2026-04-26 20:01 | 3.53963 | 98.59955 | 5601 ft | 200 kts | 115° |
| 2026-04-26 20:01 | 3.53356 | 98.61206 | 5121 ft | 199 kts | 115° |
| 2026-04-26 20:01 | 3.52758 | 98.62448 | 4710 ft | 195 kts | 115° |
| 2026-04-26 20:02 | 3.52179 | 98.63663 | 4312 ft | 192 kts | 115° |
| 2026-04-26 20:02 | 3.51611 | 98.64865 | 3916 ft | 189 kts | 115° |
| 2026-04-26 20:02 | 3.51064 | 98.66037 | 3533 ft | 188 kts | 115° |
| 2026-04-26 20:02 | 3.50756 | 98.66855 | 3263 ft | 187 kts | 105° |
| 2026-04-26 20:03 | 3.50549 | 98.68528 | 2999 ft | 173 kts | 92° |
| 2026-04-26 20:03 | 3.50649 | 98.69668 | 2986 ft | 157 kts | 84° |
| 2026-04-26 20:03 | 3.50755 | 98.70627 | 2987 ft | 144 kts | 86° |
| 2026-04-26 20:03 | 3.50814 | 98.71590 | 2985 ft | 133 kts | 93° |
| 2026-04-26 20:04 | 3.50772 | 98.72485 | 2990 ft | 124 kts | 95° |
| 2026-04-26 20:04 | 3.50807 | 98.73319 | 2985 ft | 117 kts | 85° |
| 2026-04-26 20:04 | 3.50952 | 98.74095 | 2962 ft | 113 kts | 65° |
| 2026-04-26 20:04 | 3.51473 | 98.74713 | 2915 ft | 120 kts | 52° |
| 2026-04-26 20:05 | 3.52040 | 98.75355 | 3082 ft | 128 kts | 51° |
| 2026-04-26 20:05 | 3.52696 | 98.76022 | 3193 ft | 139 kts | 47° |
| 2026-04-26 20:05 | 3.53409 | 98.76716 | 3106 ft | 156 kts | 47° |
| 2026-04-26 20:05 | 3.54338 | 98.77482 | 2742 ft | 165 kts | 41° |
| 2026-04-26 20:06 | 3.55152 | 98.78300 | 1836 ft | 197 kts | 52° |
| 2026-04-26 20:06 | 3.55878 | 98.79253 | 1674 ft | 170 kts | 56° |
| 2026-04-26 20:06 | 3.56630 | 98.80210 | 92 ft | 142 kts | 51° |
| 2026-04-26 20:06 | 3.57082 | 98.80880 | 481 ft | 121 kts | 58° |
| 2026-04-26 20:07 | 3.57696 | 98.81517 | 370 ft | 120 kts | 33° |
| 2026-04-26 20:07 | 3.58327 | 98.81983 | 526 ft | 101 kts | 33° |
| 2026-04-26 20:07 | 3.58920 | 98.82432 | 479 ft | 114 kts | 41° |
| 2026-04-26 20:07 | 3.59424 | 98.83000 | 706 ft | 119 kts | 56° |
| 2026-04-26 20:08 | 3.59832 | 98.83476 | 691 ft | 127 kts | 37° |
| 2026-04-26 20:08 | 3.60507 | 98.84086 | 794 ft | 127 kts | 47° |
| 2026-04-26 20:08 | 3.61186 | 98.84579 | 997 ft | 121 kts | 45° |
| 2026-04-26 20:08 | 3.61796 | 98.85106 | 874 ft | 112 kts | 45° |
| 2026-04-26 20:09 | 3.62403 | 98.85682 | 544 ft | 127 kts | 46° |
| 2026-04-26 20:09 | 3.63015 | 98.86313 | 201 ft | 122 kts | 37° |
| 2026-04-26 20:09 | 3.63598 | 98.86864 | 46 ft | 106 kts | 46° |
| 2026-04-26 20:09 | 3.63966 | 98.87240 | 31 ft | 17 kts | 45° |
| 2026-04-26 20:10 | 3.64076 | 98.87397 | 29 ft | 31 kts | 65° |
| 2026-04-26 20:10 | 3.64114 | 98.87579 | 32 ft | 23 kts | 83° |
| 2026-04-26 20:10 | 3.64218 | 98.87743 | 33 ft | 33 kts | 43° |
| 2026-04-26 20:10 | 3.64281 | 98.87870 | 34 ft | 16 kts | 111° |
| 2026-04-26 20:11 | 3.64285 | 98.87980 | 35 ft | 21 kts | 119° |
| 2026-04-26 20:11 | 3.64182 | 98.88099 | 35 ft | 14 kts | 139° |
| 2026-04-26 20:11 | 3.64120 | 98.88137 | 35 ft | 11 kts | 182° |
| 2026-04-26 20:12 | 3.63965 | 98.88007 | 35 ft | 17 kts | 225° |
| 2026-04-26 20:12 | 3.63913 | 98.87932 | 35 ft | 12 kts | 246° |
| 2026-04-26 20:12 | 3.63893 | 98.87874 | 35 ft | 6 kts | 253° |
| 2026-04-26 20:12 | 3.63892 | 98.87849 | 35 ft | 3 kts | 321° |
| 2026-04-26 20:13 | 3.63894 | 98.87830 | 35 ft | 0 kts | 229° |
| 2026-04-26 20:13 | 3.63893 | 98.87829 | 35 ft | 0 kts | 229° |